Time;durP1;ratioP1;P1;durP2;ratioP2;P2;SDS_P1;SDS_P2;PMS_P1;PMS_P2;Temp;Humidity;BMP_temperature;BMP_pressure;BME280_temperature;BME280_humidity;BME280_pressure;Samples;Min_cycle;Max_cycle;Signal;HPM_P1;HPM_P2
2022/05/17 00:02:02;;;;;;;;;4.00;3.00;;;;;24.56;41.94;101169.28;5099102;27;46270;-82
2022/05/17 00:04:27;;;;;;;;;6.50;5.75;;;;;24.57;41.99;101177.09;5099380;27;45641;-82
2022/05/17 00:06:53;;;;;;;;;4.25;4.25;;;;;24.53;42.49;101173.13;5101747;27;45485;-82
2022/05/17 00:09:18;;;;;;;;;6.50;5.00;;;;;24.51;42.37;101168.97;5103153;27;46550;-82
2022/05/17 00:11:44;;;;;;;;;5.25;5.00;;;;;24.50;42.14;101173.53;5105137;27;45621;-82
2022/05/17 00:14:11;;;;;;;;;4.75;4.75;;;;;24.51;42.57;101171.66;5104905;27;45827;-82
2022/05/17 00:19:59;;;;;;;;;6.00;5.75;;;;;24.42;42.89;101162.06;5105967;27;45959;-82
2022/05/17 00:22:24;;;;;;;;;7.25;6.75;;;;;24.41;42.99;101171.94;5105501;27;45579;-82
2022/05/17 00:24:50;;;;;;;;;5.00;5.00;;;;;24.39;43.53;101163.28;5106051;27;45631;-82
2022/05/17 00:27:15;;;;;;;;;5.75;5.25;;;;;24.38;43.25;101164.28;5106196;27;45689;-81
2022/05/17 00:29:41;;;;;;;;;6.00;5.00;;;;;24.35;42.90;101155.75;5106322;27;45529;-82
2022/05/17 00:35:28;;;;;;;;;5.00;4.50;;;;;24.27;43.33;101150.53;5105600;27;45496;-82
2022/05/17 00:37:53;;;;;;;;;3.75;3.75;;;;;24.23;43.72;101147.38;5106031;27;45704;-82
2022/05/17 00:40:19;;;;;;;;;5.75;5.00;;;;;24.23;43.75;101155.41;5105441;27;45505;-83
2022/05/17 00:42:44;;;;;;;;;4.50;4.00;;;;;24.22;43.47;101159.94;5105558;27;45471;-82
2022/05/17 00:45:11;;;;;;;;;6.25;5.00;;;;;24.19;44.05;101151.44;5105655;27;45508;-83
2022/05/17 00:47:43;;;;;;;;;4.75;4.50;;;;;24.12;44.17;101139.78;5104027;27;45949;-83
2022/05/17 00:50:31;;;;;;;;;5.00;5.00;;;;;24.15;44.29;101153.63;5103672;27;48915;-83
2022/05/17 00:53:02;;;;;;;;;5.00;5.00;;;;;24.13;44.78;101155.63;5104684;27;45731;-83
2022/05/17 00:55:34;;;;;;;;;5.00;5.00;;;;;24.11;44.54;101146.16;5099672;27;45745;-83
2022/05/17 00:58:21;;;;;;;;;4.00;4.00;;;;;24.10;44.82;101152.50;5098536;27;45563;-82
2022/05/17 01:00:55;;;;;;;;;4.50;4.50;;;;;24.01;45.06;101138.38;5097730;27;45707;-82
2022/05/17 01:03:24;;;;;;;;;5.25;4.25;;;;;24.02;44.62;101142.69;5097692;27;46067;-82
2022/05/17 01:05:54;;;;;;;;;6.00;5.25;;;;;23.96;44.95;101135.44;5097922;27;45730;-82
2022/05/17 01:08:21;;;;;;;;;6.25;6.00;;;;;23.98;44.94;101148.63;5097941;27;45625;-82
2022/05/17 01:10:47;;;;;;;;;7.00;5.25;;;;;23.90;44.81;101135.31;5096076;27;48597;-81
2022/05/17 01:15:57;;;;;;;;;5.75;5.75;;;;;23.91;45.54;101142.34;5097463;27;45620;-82
2022/05/17 01:18:23;;;;;;;;;4.50;4.00;;;;;23.87;45.45;101131.16;5097626;27;45447;-83
2022/05/17 01:20:48;;;;;;;;;5.25;5.00;;;;;23.86;45.80;101139.38;5095091;27;46528;-83
2022/05/17 01:23:14;;;;;;;;;5.00;5.00;;;;;23.83;45.68;101133.38;5097743;27;46246;-81
2022/05/17 01:25:40;;;;;;;;;5.50;5.00;;;;;23.76;45.24;101129.75;5097635;27;45647;-81
2022/05/17 01:28:22;;;;;;;;;6.25;5.75;;;;;23.79;45.74;101142.78;5098183;27;45655;-82
2022/05/17 01:30:48;;;;;;;;;5.00;4.75;;;;;23.73;45.86;101131.97;5100658;27;45508;-83
2022/05/17 01:33:20;;;;;;;;;4.25;4.25;;;;;23.72;45.47;101133.81;5103501;27;45643;-80
2022/05/17 01:35:46;;;;;;;;;5.50;5.50;;;;;23.65;45.92;101132.88;5104346;27;45530;-81
2022/05/17 01:38:13;;;;;;;;;7.00;6.00;;;;;23.65;45.57;101140.06;5104677;27;45508;-84
2022/05/17 01:40:39;;;;;;;;;5.75;4.00;;;;;23.57;45.90;101132.94;5103631;27;45489;-83
2022/05/17 01:43:05;;;;;;;;;5.75;5.50;;;;;23.57;45.75;101127.59;5097222;27;46315;-83
2022/05/17 01:45:30;;;;;;;;;5.50;4.25;;;;;23.55;46.57;101136.81;5097320;27;45615;-81
2022/05/17 01:47:56;;;;;;;;;5.75;5.75;;;;;23.49;45.75;101127.66;5097454;27;45551;-82
2022/05/17 01:50:21;;;;;;;;;5.25;5.00;;;;;23.46;45.91;101125.34;5097053;27;45550;-84
2022/05/17 01:52:47;;;;;;;;;5.00;4.00;;;;;23.51;46.58;101143.53;5097117;27;46332;-83
2022/05/17 01:55:12;;;;;;;;;4.00;3.25;;;;;23.40;46.32;101126.88;5097620;27;45583;-82
2022/05/17 01:57:38;;;;;;;;;5.75;4.00;;;;;23.42;46.43;101134.72;5097299;27;45585;-83
2022/05/17 02:00:06;;;;;;;;;5.00;4.00;;;;;23.39;46.33;101137.75;5095758;27;47252;-83
2022/05/17 02:05:53;;;;;;;;;3.75;3.25;;;;;23.25;46.08;101163.44;5096334;27;45647;-82
2022/05/17 02:08:18;;;;;;;;;4.50;3.25;;;;;23.12;46.54;101146.28;5097082;27;45689;-81
2022/05/17 02:10:44;;;;;;;;;4.25;4.25;;;;;23.11;46.12;101166.00;5096992;27;46378;-82
2022/05/17 02:13:10;;;;;;;;;5.00;5.00;;;;;23.00;46.75;101157.38;5096797;27;46215;-83
2022/05/17 02:15:36;;;;;;;;;4.00;4.00;;;;;22.98;46.22;101161.25;5096898;27;45740;-83
2022/05/17 02:21:23;;;;;;;;;4.00;3.00;;;;;22.85;46.77;101158.31;5096223;27;46239;-82
2022/05/17 02:23:48;;;;;;;;;5.00;4.50;;;;;22.79;46.47;101172.38;5097876;27;45684;-82
2022/05/17 02:26:14;;;;;;;;;4.00;3.00;;;;;22.67;46.41;101166.59;5096613;27;45644;-81
2022/05/17 02:28:43;;;;;;;;;7.00;4.00;;;;;22.61;46.92;101161.94;5096719;27;45702;-82
2022/05/17 02:31:11;;;;;;;;;4.00;3.25;;;;;22.53;46.83;101160.09;5096357;27;45605;-84
2022/05/17 02:33:37;;;;;;;;;4.75;3.75;;;;;22.50;47.07;101163.13;5097163;27;46081;-83
2022/05/17 02:36:02;;;;;;;;;3.75;3.75;;;;;22.48;47.01;101166.97;5096479;27;45507;-82
2022/05/17 02:38:28;;;;;;;;;4.00;3.00;;;;;22.39;46.64;101154.66;5094604;27;45902;-83
2022/05/17 02:40:53;;;;;;;;;3.50;3.00;;;;;22.46;47.39;101171.66;5097022;27;45699;-82
2022/05/17 02:43:19;;;;;;;;;5.00;4.00;;;;;22.45;46.92;101168.16;5098500;27;47308;-81
2022/05/17 02:45:44;;;;;;;;;4.25;4.00;;;;;22.41;47.13;101166.81;5098996;27;45611;-82
2022/05/17 02:51:31;;;;;;;;;2.25;2.25;;;;;22.43;46.59;101162.16;5084067;27;46072;-81
2022/05/17 02:53:57;;;;;;;;;3.25;3.25;;;;;22.38;46.53;101155.66;5095830;27;45782;-83
2022/05/17 02:56:22;;;;;;;;;3.00;3.00;;;;;22.39;46.68;101152.00;5095945;27;45501;-83
2022/05/17 02:58:47;;;;;;;;;4.50;4.00;;;;;22.38;46.80;101147.66;5096098;27;45788;-82
2022/05/17 03:01:13;;;;;;;;;2.25;2.25;;;;;22.43;46.71;101151.47;5094436;27;47539;-82
2022/05/17 03:03:40;;;;;;;;;4.75;4.00;;;;;22.48;46.62;101153.63;5095780;27;45633;-83
2022/05/17 03:06:07;;;;;;;;;4.00;4.00;;;;;22.49;46.74;101147.28;5094135;27;45857;-82
2022/05/17 03:08:32;;;;;;;;;4.00;4.00;;;;;22.50;46.73;101143.59;5095697;27;45710;-83
2022/05/17 03:10:58;;;;;;;;;4.00;4.00;;;;;22.50;47.29;101141.78;5095333;27;45501;-83
2022/05/17 03:13:23;;;;;;;;;4.00;4.00;;;;;22.48;47.05;101137.59;5095503;27;46320;-82
2022/05/17 03:15:52;;;;;;;;;6.50;4.00;;;;;22.49;47.29;101140.09;5095252;27;45683;-82
2022/05/17 03:21:40;;;;;;;;;4.25;4.00;;;;;22.59;47.06;101155.91;5095055;27;45587;-81
2022/05/17 03:24:06;;;;;;;;;4.50;3.25;;;;;22.55;46.78;101147.44;5095206;27;46390;-82
2022/05/17 03:26:32;;;;;;;;;1.00;1.00;;;;;22.54;47.16;101143.09;5095278;27;45513;-83
2022/05/17 03:28:58;;;;;;;;;3.75;3.00;;;;;22.55;47.36;101141.25;5095465;27;45646;-82
2022/05/17 03:31:24;;;;;;;;;4.00;4.00;;;;;22.54;46.93;101145.75;5110768;27;47429;-82
2022/05/17 03:33:50;;;;;;;;;4.00;4.00;;;;;22.55;46.71;101139.41;5095233;27;45947;-82
2022/05/17 03:36:15;;;;;;;;;4.50;4.00;;;;;22.55;47.08;101136.75;5095336;27;45530;-82
2022/05/17 03:38:41;;;;;;;;;5.00;5.00;;;;;22.60;46.89;101149.56;5095328;27;45776;-83
2022/05/17 03:41:07;;;;;;;;;4.75;4.00;;;;;22.59;47.00;101151.41;5094935;27;45760;-83
2022/05/17 03:43:32;;;;;;;;;5.00;4.25;;;;;22.49;46.98;101129.41;5094471;27;46537;-83
2022/05/17 03:45:58;;;;;;;;;5.00;5.00;;;;;22.56;47.14;101149.06;5095024;27;45638;-83
2022/05/17 03:51:47;;;;;;;;;6.00;4.25;;;;;22.53;47.85;101153.94;5092165;27;45594;-82
2022/05/17 03:54:14;;;;;;;;;4.75;3.25;;;;;22.53;47.38;101164.63;5094958;27;46476;-82
2022/05/17 03:56:40;;;;;;;;;5.25;4.00;;;;;22.49;48.00;101152.63;5094740;27;45493;-82
2022/05/17 03:59:05;;;;;;;;;5.75;5.00;;;;;22.52;47.65;101158.44;5094892;27;45801;-82
2022/05/17 04:01:30;;;;;;;;;5.00;5.00;;;;;22.46;47.96;101151.13;5094900;27;45658;-83
2022/05/17 04:07:17;;;;;;;;;6.25;5.50;;;;;22.46;47.71;101153.78;5094476;27;45848;-83
2022/05/17 04:09:43;;;;;;;;;6.75;5.50;;;;;22.50;47.74;101155.13;5093220;27;45540;-84
2022/05/17 04:12:09;;;;;;;;;4.50;4.50;;;;;22.50;47.71;101155.13;5093196;27;47434;-83
2022/05/17 04:14:34;;;;;;;;;4.00;4.00;;;;;22.48;47.55;101159.78;5093020;27;46830;-83
2022/05/17 04:17:00;;;;;;;;;7.50;7.00;;;;;22.41;47.83;101142.78;5094542;27;46107;-81
2022/05/17 04:19:25;;;;;;;;;5.00;5.00;;;;;22.50;48.34;101159.63;5094738;27;45500;-82
2022/05/17 04:21:50;;;;;;;;;5.25;5.00;;;;;22.46;48.32;101161.78;5094753;27;46527;-82
2022/05/17 04:24:16;;;;;;;;;4.00;4.00;;;;;22.41;47.82;101150.81;5094434;27;46171;-81
2022/05/17 04:26:42;;;;;;;;;3.25;3.25;;;;;22.38;47.70;101145.81;5094529;27;45565;-81
2022/05/17 04:29:07;;;;;;;;;4.25;4.25;;;;;22.46;47.91;101159.13;5094387;27;45837;-81
2022/05/17 04:31:33;;;;;;;;;6.00;5.75;;;;;22.37;48.24;101146.81;5092994;27;47798;-82
2022/05/17 04:37:21;;;;;;;;;4.75;4.75;;;;;22.43;48.10;101164.81;5094068;27;45769;-81
2022/05/17 04:39:47;;;;;;;;;5.50;5.00;;;;;22.41;48.16;101166.81;5094366;27;45779;-82
2022/05/17 04:42:12;;;;;;;;;6.00;6.00;;;;;22.41;48.61;101168.66;5092682;27;46531;-82
2022/05/17 04:44:38;;;;;;;;;5.75;5.00;;;;;22.42;47.96;101163.16;5094037;27;46235;-82
2022/05/17 04:47:03;;;;;;;;;6.00;5.75;;;;;22.44;48.10;101171.00;5094201;27;46090;-83
2022/05/17 04:49:29;;;;;;;;;5.75;5.25;;;;;22.44;48.67;101173.66;5094314;27;45551;-83
2022/05/17 04:51:55;;;;;;;;;3.00;3.00;;;;;22.42;48.21;101176.50;5094039;27;46708;-82
2022/05/17 04:54:20;;;;;;;;;5.25;4.25;;;;;22.42;48.58;101175.66;5092563;27;47696;-83
2022/05/17 04:56:46;;;;;;;;;6.50;5.00;;;;;22.42;48.03;101181.00;5096200;27;45852;-81
2022/05/17 04:59:11;;;;;;;;;7.00;6.75;;;;;22.40;48.75;101183.84;5097663;27;45594;-82
2022/05/17 05:01:38;;;;;;;;;6.75;6.25;;;;;22.36;48.48;101160.34;5097684;27;46407;-83
2022/05/17 05:07:25;;;;;;;;;7.00;6.00;;;;;22.40;48.82;101181.19;5097419;27;45666;-82
2022/05/17 05:09:51;;;;;;;;;6.25;6.25;;;;;22.37;48.84;101180.69;5097432;27;45567;-82
2022/05/17 05:12:16;;;;;;;;;6.75;6.00;;;;;22.37;48.60;101192.22;5095615;27;47691;-82
2022/05/17 05:14:41;;;;;;;;;6.75;6.50;;;;;22.35;48.66;101188.06;5097428;27;45786;-83
2022/05/17 05:17:09;;;;;;;;;6.00;5.50;;;;;22.41;48.67;101198.03;5095597;27;45853;-85
2022/05/17 05:22:55;;;;;;;;;6.25;6.00;;;;;22.38;49.14;101191.22;5097070;27;45545;-83
2022/05/17 05:25:21;;;;;;;;;6.00;6.00;;;;;22.42;48.91;101205.88;5097217;27;46273;-82
2022/05/17 05:27:46;;;;;;;;;7.75;7.00;;;;;22.41;48.83;101203.38;5097287;27;45665;-82
2022/05/17 05:30:15;;;;;;;;;7.75;7.75;;;;;22.47;49.14;101213.38;5097621;27;45646;-84
2022/05/17 05:32:40;;;;;;;;;7.00;5.50;;;;;22.47;48.51;101208.03;5099104;27;46469;-84
2022/05/17 05:35:06;;;;;;;;;5.00;5.00;;;;;22.47;49.05;101200.84;5098123;27;46196;-84
2022/05/17 05:37:32;;;;;;;;;7.25;6.50;;;;;22.50;48.51;101205.88;5097560;27;45709;-84
2022/05/17 05:39:57;;;;;;;;;6.00;6.00;;;;;22.48;48.61;101199.84;5097521;27;45665;-84
2022/05/17 05:42:22;;;;;;;;;7.75;6.50;;;;;22.52;49.08;101209.19;5094894;27;47367;-83
2022/05/17 05:44:48;;;;;;;;;8.25;6.75;;;;;22.48;48.99;101205.19;5096684;27;45726;-82
2022/05/17 05:47:13;;;;;;;;;7.00;6.00;;;;;22.54;48.72;101215.19;5097610;27;45627;-84
2022/05/17 05:53:05;;;;;;;;;7.00;6.50;;;;;22.56;48.52;101226.53;5085192;27;45695;-82
2022/05/17 05:55:31;;;;;;;;;7.75;6.25;;;;;22.54;49.07;101227.72;5096883;27;45904;-81
2022/05/17 05:57:58;;;;;;;;;10.00;9.00;;;;;22.54;48.83;101222.38;5096745;27;45605;-83
2022/05/17 06:00:23;;;;;;;;;7.50;7.25;;;;;22.56;49.11;101225.72;5112429;27;45919;-82
2022/05/17 06:02:49;;;;;;;;;7.00;7.00;;;;;22.54;48.87;101220.53;5094871;27;46789;-83
2022/05/17 06:05:16;;;;;;;;;9.25;7.25;;;;;22.58;49.16;101227.19;5096672;27;46007;-84
2022/05/17 06:07:41;;;;;;;;;7.25;7.00;;;;;22.58;48.82;101218.34;5095780;27;45734;-80
2022/05/17 06:10:09;;;;;;;;;6.00;6.00;;;;;22.64;48.66;101228.34;5096158;27;45722;-79
2022/05/17 06:12:34;;;;;;;;;8.00;7.50;;;;;22.66;48.63;101228.19;5095016;27;47875;-79
2022/05/17 06:14:59;;;;;;;;;7.50;7.25;;;;;22.67;48.62;101220.00;5096505;27;46236;-79
2022/05/17 06:17:27;;;;;;;;;6.00;6.00;;;;;22.69;48.11;101228.66;5096295;27;45623;-81
2022/05/17 06:23:15;;;;;;;;;6.75;6.50;;;;;22.69;47.70;101227.84;5095968;27;46101;-80
2022/05/17 06:25:41;;;;;;;;;8.50;8.50;;;;;22.72;48.11;101230.22;5093983;27;46631;-79
2022/05/17 06:28:06;;;;;;;;;7.00;7.00;;;;;22.76;48.01;101242.22;5095821;27;45702;-81
2022/05/17 06:30:32;;;;;;;;;7.25;6.00;;;;;22.72;47.67;101228.38;5096409;27;45591;-79
2022/05/17 06:32:57;;;;;;;;;6.25;5.50;;;;;22.75;48.01;101236.03;5094918;27;47210;-79
2022/05/17 06:35:23;;;;;;;;;7.75;6.00;;;;;22.78;47.93;101237.53;5096157;27;46446;-80
2022/05/17 06:37:48;;;;;;;;;6.00;5.50;;;;;22.73;47.86;101223.84;5095768;27;45578;-79
2022/05/17 06:40:14;;;;;;;;;6.25;6.25;;;;;22.84;47.13;101231.47;5096521;27;45501;-80
2022/05/17 06:42:39;;;;;;;;;6.00;5.75;;;;;22.80;47.58;101224.81;5097512;27;45444;-84
2022/05/17 06:45:07;;;;;;;;;4.75;4.75;;;;;22.86;47.21;101224.97;5098280;27;45606;-83
2022/05/17 06:47:32;;;;;;;;;5.50;5.50;;;;;22.80;47.04;101220.31;5097820;27;45588;-82
2022/05/17 06:53:19;;;;;;;;;5.50;5.00;;;;;22.88;46.73;101224.81;5096005;27;45589;-83
2022/05/17 06:55:44;;;;;;;;;4.25;4.00;;;;;22.90;45.94;101231.63;5097515;27;45562;-83
2022/05/17 06:58:10;;;;;;;;;4.00;3.25;;;;;22.88;45.55;101233.66;5099363;27;45547;-82
2022/05/17 07:00:36;;;;;;;;;6.25;4.75;;;;;22.84;46.42;101223.47;5101668;27;45628;-82
2022/05/17 07:03:01;;;;;;;;;4.00;4.00;;;;;22.81;46.21;101221.16;5097737;27;47391;-81
2022/05/17 07:08:48;;;;;;;;;3.25;3.25;;;;;22.88;45.88;101233.66;5098240;27;45610;-82
2022/05/17 07:13:58;;;;;;;;;5.75;5.25;;;;;22.90;45.24;101226.28;5094952;27;46186;-82
2022/05/17 07:16:24;;;;;;;;;4.25;4.00;;;;;22.93;45.71;101223.28;5094848;27;45670;-84
2022/05/17 07:18:50;;;;;;;;;4.00;3.25;;;;;22.94;45.30;101218.75;5093820;27;45636;-83
2022/05/17 07:21:16;;;;;;;;;5.25;5.00;;;;;22.95;45.66;101221.22;5094879;27;45702;-83
2022/05/17 07:23:42;;;;;;;;;6.25;5.00;;;;;23.00;45.38;101215.38;5095046;27;46737;-82
2022/05/17 07:26:12;;;;;;;;;4.00;4.00;;;;;23.02;45.58;101216.88;5094673;27;46326;-83
2022/05/17 07:28:43;;;;;;;;;7.25;6.00;;;;;23.07;45.64;101219.00;5094701;27;45576;-83
2022/05/17 07:31:09;;;;;;;;;6.00;5.00;;;;;23.11;45.58;101216.81;5094639;27;45723;-83
2022/05/17 07:33:35;;;;;;;;;6.00;4.75;;;;;23.12;45.52;101213.13;5093113;27;47414;-82
2022/05/17 07:36:01;;;;;;;;;4.75;4.25;;;;;23.18;45.32;101228.47;5094373;27;45599;-82
2022/05/17 07:38:27;;;;;;;;;5.00;4.00;;;;;23.20;45.37;101226.47;5094341;27;45834;-82
2022/05/17 07:40:54;;;;;;;;;4.00;3.50;;;;;23.23;44.40;101234.13;5094536;27;45888;-82
2022/05/17 07:43:20;;;;;;;;;3.75;3.00;;;;;23.22;44.30;101219.09;5094247;27;46388;-82
2022/05/17 07:45:49;;;;;;;;;3.75;3.25;;;;;23.30;44.09;101222.56;5093005;27;46368;-82
2022/05/17 07:48:16;;;;;;;;;5.25;3.00;;;;;23.33;43.40;101226.72;5094537;27;45756;-84
2022/05/17 07:54:03;;;;;;;;;6.50;4.00;;;;;23.40;43.82;101223.16;5086865;27;45756;-81
2022/05/17 07:56:29;;;;;;;;;4.00;3.00;;;;;23.43;42.92;101222.78;5094514;27;46273;-81
2022/05/17 07:58:54;;;;;;;;;4.00;3.00;;;;;23.46;42.98;101227.00;5094168;27;46073;-80
2022/05/17 08:01:19;;;;;;;;;5.25;4.00;;;;;23.46;42.00;101220.81;5094524;27;45565;-86
2022/05/17 08:03:45;;;;;;;;;1599.00;675.75;;;;;23.48;41.59;101226.84;5094812;27;45720;-87
2022/05/17 08:06:10;;;;;;;;;10.00;7.00;;;;;23.55;40.38;101227.75;5094383;27;45726;-85
2022/05/17 08:08:35;;;;;;;;;4.50;3.00;;;;;23.51;39.99;101218.44;5094343;27;45556;-84
2022/05/17 08:11:01;;;;;;;;;3.00;2.25;;;;;23.60;39.58;101225.38;5092924;27;45929;-84
2022/05/17 08:13:27;;;;;;;;;5.75;3.50;;;;;23.60;39.34;101220.88;5092644;27;48316;-85
2022/05/17 08:15:53;;;;;;;;;3.00;2.00;;;;;23.69;39.67;101224.34;5094082;27;46318;-81
2022/05/17 08:18:19;;;;;;;;;3.75;2.75;;;;;23.73;38.43;101231.81;5092604;27;45687;-83
2022/05/17 08:24:07;;;;;;;;;4.00;3.00;;;;;23.81;44.00;101223.72;5095458;27;45613;-81
2022/05/17 08:29:17;;;;;;;;;1.75;1.75;;;;;23.73;41.76;101218.44;5093775;27;45575;-81
2022/05/17 08:33:14;;;;;;;;;3.00;3.00;;;;;23.70;40.26;101220.63;5098078;27;45522;-82
2022/05/17 08:34:28;;;;;;;;;4.50;3.75;;;;;23.65;39.53;101217.66;5097147;27;45533;-81
2022/05/17 08:36:54;;;;;;;;;3.75;3.00;;;;;23.72;39.76;101227.47;5097549;27;45619;-81
2022/05/17 08:39:19;;;;;;;;;3.00;2.00;;;;;23.63;39.61;101209.00;5097492;27;45574;-82
2022/05/17 08:41:54;;;;;;;;;3.25;3.00;;;;;23.66;41.91;101205.94;5097640;27;45604;-81
2022/05/17 08:44:39;;;;;;;;;1.00;0.75;;;;;23.76;40.27;101217.22;5097440;27;46748;-81
2022/05/17 08:47:06;;;;;;;;;3.00;2.50;;;;;23.77;39.20;101219.75;5097436;27;45832;-82
2022/05/17 08:49:44;;;;;;;;;2.50;2.00;;;;;23.81;38.42;101226.38;5097581;27;45556;-81
2022/05/17 08:52:13;;;;;;;;;2.75;2.75;;;;;23.84;37.82;101217.19;5097815;27;45594;-82
2022/05/17 08:54:41;;;;;;;;;2.00;1.75;;;;;23.79;37.88;101215.06;5097190;27;46334;-83
2022/05/17 08:57:30;;;;;;;;;3.25;3.00;;;;;23.92;37.96;101226.97;5097414;27;46595;-81
2022/05/17 08:59:59;;;;;;;;;2.25;2.25;;;;;23.94;37.56;101217.75;5097685;27;45780;-80
2022/05/17 09:03:02;;;;;;;;;3.00;3.00;;;;;24.01;37.65;101220.56;5098298;27;45620;-78
2022/05/17 09:05:38;;;;;;;;;4.00;4.00;;;;;24.06;37.81;101210.97;5033630;28;47295;-78
2022/05/17 09:08:25;;;;;;;;;4.25;4.00;;;;;24.11;38.02;101213.91;5034303;28;45922;-79
2022/05/17 09:11:02;;;;;;;;;3.25;3.00;;;;;24.18;37.93;101217.53;5033998;28;45649;-80
2022/05/17 09:13:41;;;;;;;;;3.00;2.75;;;;;24.19;37.53;101213.03;5034292;28;45729;-79
2022/05/17 09:16:06;;;;;;;;;2.00;1.50;;;;;24.17;37.64;101199.84;5033888;28;46700;-80
2022/05/17 09:18:32;;;;;;;;;3.00;3.00;;;;;24.27;37.57;101207.59;5033201;28;47310;-80
2022/05/17 09:20:58;;;;;;;;;5.00;4.00;;;;;24.30;37.50;101198.34;5034052;28;45541;-79
2022/05/17 09:23:23;;;;;;;;;3.25;3.00;;;;;24.33;37.38;101196.16;5017479;28;45537;-79
2022/05/17 09:26:04;;;;;;;;;2.00;2.00;;;;;24.47;36.80;101210.56;5033719;28;46630;-79
2022/05/17 09:28:55;;;;;;;;;2.00;1.75;;;;;24.50;36.59;101208.34;5033842;28;45529;-79
2022/05/17 09:31:23;;;;;;;;;1.75;1.75;;;;;24.54;36.17;101209.63;5034114;28;45788;-78
2022/05/17 09:33:50;;;;;;;;;2.00;2.00;;;;;24.57;36.41;101200.38;5016938;28;45697;-79
2022/05/17 09:36:22;;;;;;;;;2.25;2.00;;;;;24.62;35.70;101200.66;5033548;28;45798;-78
2022/05/17 09:38:50;;;;;;;;;2.00;2.00;;;;;24.61;35.45;101194.50;5033531;28;45709;-79
2022/05/17 09:41:21;;;;;;;;;3.00;2.00;;;;;24.61;35.35;101180.25;5052249;27;46090;-78
2022/05/17 09:44:04;;;;;;;;;2.00;2.00;;;;;24.75;35.05;101203.53;5096863;27;45764;-78
2022/05/17 09:46:33;;;;;;;;;1.25;1.25;;;;;24.79;34.70;101190.56;5096450;27;46482;-78
2022/05/17 09:54:48;;;;;;;;;2.00;2.00;;;;;24.96;34.09;101186.69;5096162;27;45569;-79
2022/05/17 09:57:29;;;;;;;;;1.00;1.00;;;;;25.02;34.49;101197.50;5096388;27;46692;-79
2022/05/17 10:00:16;;;;;;;;;2.50;1.00;;;;;25.09;33.77;101192.22;5095946;27;45818;-79
2022/05/17 10:02:55;;;;;;;;;1.00;1.00;;;;;25.16;33.70;101195.78;5095601;27;45459;-79
2022/05/17 10:09:04;;;;;;;;;1.00;1.00;;;;;25.26;33.57;101190.13;5095559;27;45482;-79
2022/05/17 10:11:42;;;;;;;;;1.25;1.00;;;;;25.30;33.83;101175.31;5096079;27;46572;-79
2022/05/17 10:14:18;;;;;;;;;1.00;1.00;;;;;25.33;34.12;101183.78;5095947;27;45475;-80
2022/05/17 10:16:52;;;;;;;;;1.00;1.00;;;;;25.44;33.80;101191.34;5096318;27;45643;-79
2022/05/17 10:26:05;;;;;;;;;1.00;1.00;;;;;25.55;32.96;101176.56;5095305;27;45680;-79
2022/05/17 10:28:57;;;;;;;;;1.00;1.00;;;;;25.58;32.31;101178.91;5095697;27;45565;-78
2022/05/17 10:31:34;;;;;;;;;1.50;1.50;;;;;25.61;32.90;101166.94;5110956;27;48487;-78
2022/05/17 10:34:29;;;;;;;;;3.00;1.25;;;;;25.65;32.61;101161.00;5095288;27;46608;-78
2022/05/17 10:37:03;;;;;;;;;2.00;2.00;;;;;25.68;32.78;101154.44;5095326;27;45615;-78
2022/05/17 10:39:37;;;;;;;;;1.50;1.50;;;;;25.69;33.56;101153.41;5095426;27;45817;-77
2022/05/17 10:42:04;;;;;;;;;2.00;2.00;;;;;25.78;33.30;101158.44;5095336;27;45906;-78
2022/05/17 10:44:47;;;;;;;;;2.25;1.25;;;;;25.78;33.19;101142.31;5095266;27;45952;-78
2022/05/17 10:47:47;;;;;;;;;3.00;3.00;;;;;25.88;33.53;101140.13;5095124;27;45742;-80
2022/05/17 10:53:40;;;;;;;;;2.50;2.50;;;;;25.95;32.72;101131.28;5093578;27;45678;-78
2022/05/17 10:56:14;;;;;;;;;2.00;2.00;;;;;25.97;33.13;101131.91;5095018;27;45573;-77
2022/05/17 10:59:03;;;;;;;;;2.00;2.00;;;;;26.02;33.37;101132.97;5095028;27;45614;-77
2022/05/17 11:01:36;;;;;;;;;1.00;1.00;;;;;26.08;33.49;101126.81;5095229;27;45706;-78
2022/05/17 11:04:27;;;;;;;;;2.00;2.00;;;;;26.12;33.27;101127.28;5094378;27;45762;-77
2022/05/17 11:10:22;;;;;;;;;2.75;2.00;;;;;26.24;33.47;101128.38;5094593;27;45565;-78
2022/05/17 11:12:53;;;;;;;;;3.00;2.00;;;;;26.28;33.49;101114.38;5094740;27;45521;-78
2022/05/17 11:15:26;;;;;;;;;2.00;2.00;;;;;26.32;32.61;101117.47;5094621;27;46809;-77
2022/05/17 11:17:57;;;;;;;;;2.50;2.50;;;;;26.37;33.12;101117.72;5093833;27;45883;-78
2022/05/17 11:20:29;;;;;;;;;3.25;3.00;;;;;26.41;33.20;101102.00;5095239;27;45627;-78
2022/05/17 11:23:28;;;;;;;;;3.00;3.00;;;;;26.53;33.10;101103.94;5095683;27;45643;-78
2022/05/17 11:26:18;;;;;;;;;2.00;2.00;;;;;26.61;33.18;101097.56;5097089;27;46093;-77
2022/05/17 11:29:02;;;;;;;;;3.00;2.50;;;;;26.71;33.66;101106.06;5096263;27;46427;-78
2022/05/17 11:31:36;;;;;;;;;3.25;3.25;;;;;26.82;34.21;101104.66;5095875;27;45504;-78
2022/05/17 11:34:30;;;;;;;;;4.00;4.00;;;;;26.91;33.33;101104.28;5095302;27;45787;-77
2022/05/17 11:36:58;;;;;;;;;4.00;3.75;;;;;26.98;33.90;101093.53;5094824;27;45626;-80
2022/05/17 11:39:40;;;;;;;;;3.00;3.00;;;;;27.10;34.32;101097.25;5095090;27;45958;-82
2022/05/17 11:42:09;;;;;;;;;3.00;3.00;;;;;27.12;34.02;101084.44;5095080;27;45601;-80
2022/05/17 11:44:46;;;;;;;;;3.25;3.25;;;;;27.24;33.44;101085.50;5095150;27;45739;-77
2022/05/17 11:47:32;;;;;;;;;3.50;3.50;;;;;27.29;33.56;101080.31;5094949;27;45672;-77
2022/05/17 11:53:22;;;;;;;;;4.00;4.00;;;;;27.40;33.57;101089.63;5094302;27;45611;-79
2022/05/17 11:56:19;;;;;;;;;3.75;3.25;;;;;27.42;33.72;101093.75;5094754;27;45522;-78
2022/05/17 11:58:48;;;;;;;;;4.00;4.00;;;;;27.47;34.56;101091.31;5094726;27;46866;-80
2022/05/17 12:01:31;;;;;;;;;4.00;3.50;;;;;27.52;33.97;101079.94;5094966;27;46618;-80
2022/05/17 12:04:01;;;;;;;;;4.00;3.25;;;;;27.57;33.72;101073.94;5094209;27;45580;-80
2022/05/17 12:09:55;;;;;;;;;4.00;4.00;;;;;27.65;33.47;101066.44;5098787;27;45494;-78
2022/05/17 12:12:30;;;;;;;;;3.00;3.00;;;;;27.70;33.38;101074.72;5098210;27;46212;-78
2022/05/17 12:15:10;;;;;;;;;4.50;3.75;;;;;27.73;33.26;101073.50;5098161;27;45784;-78
2022/05/17 12:17:46;;;;;;;;;4.25;3.75;;;;;27.73;33.20;101063.53;5098223;27;45718;-79
2022/05/17 12:27:21;;;;;;;;;3.25;2.25;;;;;27.80;33.19;101044.69;5097972;27;45674;-78
2022/05/17 12:32:36;;;;;;;;;4.00;3.50;;;;;27.88;33.01;101041.75;5097624;27;46160;-78
2022/05/17 12:35:04;;;;;;;;;5.00;4.25;;;;;27.90;33.43;101037.00;5097886;27;46194;-78
2022/05/17 12:37:31;;;;;;;;;5.00;4.75;;;;;27.96;33.27;101039.63;5097678;27;45631;-78
2022/05/17 12:43:06;;;;;;;;;5.00;4.00;;;;;28.13;33.97;101040.03;5097430;27;45463;-78
2022/05/17 12:45:36;;;;;;;;;4.50;4.00;;;;;28.18;33.52;101025.94;5097564;27;46162;-78
2022/05/17 12:48:33;;;;;;;;;2.00;2.00;;;;;28.23;33.78;101032.31;5097708;27;45455;-77
2022/05/17 12:54:25;;;;;;;;;7.00;5.00;;;;;28.29;33.66;101020.69;5096968;27;45565;-79
2022/05/17 12:56:50;;;;;;;;;7.25;5.00;;;;;28.27;33.69;101014.69;5097179;27;45655;-79
2022/05/17 12:59:32;;;;;;;;;4.75;4.75;;;;;28.35;33.80;101024.38;5097344;27;45900;-78
2022/05/17 13:02:01;;;;;;;;;4.75;4.00;;;;;28.38;34.15;101023.97;5097679;27;45721;-79
2022/05/17 13:04:28;;;;;;;;;5.00;4.00;;;;;28.42;34.58;101029.75;5097838;27;46927;-79
2022/05/17 13:10:15;;;;;;;;;3.00;3.00;;;;;28.51;33.95;101007.69;5097708;27;45627;-79
2022/05/17 13:12:42;;;;;;;;;4.00;4.00;;;;;28.49;34.05;101004.41;5097721;27;45713;-79
2022/05/17 13:15:11;;;;;;;;;5.50;5.25;;;;;28.56;34.35;100998.94;5096945;27;46489;-79
2022/05/17 13:17:40;;;;;;;;;3.00;3.00;;;;;28.62;34.03;101019.66;5094337;27;48422;-79
2022/05/17 13:20:11;;;;;;;;;4.25;4.25;;;;;28.65;33.76;101001.19;5097487;27;45794;-79
2022/05/17 13:26:02;;;;;;;;;4.75;4.75;;;;;28.63;33.70;100983.56;5096776;27;45563;-78
2022/05/17 13:28:33;;;;;;;;;4.00;4.00;;;;;28.71;33.87;100988.72;5097891;27;45898;-78
2022/05/17 13:31:09;;;;;;;;;4.00;4.00;;;;;28.78;34.08;101003.81;5097210;27;45538;-79
2022/05/17 13:33:37;;;;;;;;;5.25;5.25;;;;;28.76;33.90;100981.66;5097175;27;45475;-79